Time;durP1;ratioP1;P1;durP2;ratioP2;P2;SDS_P1;SDS_P2;PMS_P1;PMS_P2;Temp;Humidity;BMP_temperature;BMP_pressure;BME280_temperature;BME280_humidity;BME280_pressure;Samples;Min_cycle;Max_cycle;Signal;HPM_P1;HPM_P2
2023/01/13 00:00:46;;;;;;;22.55;13.07;;;;;;;;;;5072821;28;20058;-78
2023/01/13 00:03:12;;;;;;;26.75;17.27;;;;;;;;;;5060269;28;20091;-77
2023/01/13 00:05:38;;;;;;;22.45;15.68;;;;;;;;;;5071105;28;20029;-78
2023/01/13 00:08:05;;;;;;;24.25;15.73;;;;;;;;;;5074185;28;20035;-77
2023/01/13 00:10:32;;;;;;;20.40;13.90;;;;;;;;;;5075256;28;20032;-77
2023/01/13 00:12:57;;;;;;;22.45;14.23;;;;;;;;;;5067030;28;20039;-77
2023/01/13 00:15:23;;;;;;;23.40;14.65;;;;;;;;;;5055450;28;20108;-77
2023/01/13 00:17:49;;;;;;;26.60;17.20;;;;;;;;;;5060728;28;20070;-77
2023/01/13 00:20:16;;;;;;;28.02;19.40;;;;;;;;;;5058580;28;20071;-77
2023/01/13 00:22:42;;;;;;;28.77;18.88;;;;;;;;;;5057753;28;20098;-77
2023/01/13 00:25:08;;;;;;;26.30;16.33;;;;;;;;;;5072618;28;20410;-77
2023/01/13 00:27:34;;;;;;;27.60;17.52;;;;;;;;;;5073596;28;20520;-77
2023/01/13 00:30:00;;;;;;;26.67;17.35;;;;;;;;;;5074102;28;20395;-77
2023/01/13 00:32:27;;;;;;;25.65;16.60;;;;;;;;;;5073891;28;20028;-77
2023/01/13 00:34:53;;;;;;;24.08;17.08;;;;;;;;;;5072928;28;20078;-77
2023/01/13 00:37:19;;;;;;;24.85;17.40;;;;;;;;;;5073478;28;20640;-77
2023/01/13 00:39:45;;;;;;;21.77;16.15;;;;;;;;;;5062473;28;20094;-77
2023/01/13 00:44:56;;;;;;;22.88;12.88;;;;;;;;;;5073553;28;20384;-77
2023/01/13 00:47:22;;;;;;;38.58;22.75;;;;;;;;;;5073489;28;20028;-78
2023/01/13 00:49:49;;;;;;;41.65;23.67;;;;;;;;;;5072892;28;20036;-77
2023/01/13 00:52:15;;;;;;;51.15;27.27;;;;;;;;;;5060173;28;20385;-77
2023/01/13 00:54:41;;;;;;;47.53;26.75;;;;;;;;;;5066283;28;20063;-77
2023/01/13 00:57:07;;;;;;;40.85;25.40;;;;;;;;;;5073208;28;20064;-77
2023/01/13 00:59:33;;;;;;;29.38;16.92;;;;;;;;;;5073264;28;20035;-77
2023/01/13 01:01:59;;;;;;;26.30;17.13;;;;;;;;;;5062930;28;20029;-77
2023/01/13 01:04:25;;;;;;;23.50;14.80;;;;;;;;;;5074492;28;20367;-77
2023/01/13 01:06:51;;;;;;;23.25;14.35;;;;;;;;;;5075237;28;20025;-77
2023/01/13 01:09:17;;;;;;;22.70;13.65;;;;;;;;;;5067461;28;20036;-77
2023/01/13 01:11:43;;;;;;;21.17;14.18;;;;;;;;;;5075129;28;20875;-77
2023/01/13 01:14:11;;;;;;;10.75;3.92;;;;;;;;;;5075040;28;20111;-77
2023/01/13 01:16:38;;;;;;;6.82;2.35;;;;;;;;;;5075061;28;20185;-77
2023/01/13 01:19:04;;;;;;;8.93;4.68;;;;;;;;;;5073673;28;20435;-77
2023/01/13 01:21:31;;;;;;;8.00;3.58;;;;;;;;;;5074939;28;20459;-77
2023/01/13 01:23:58;;;;;;;9.32;3.88;;;;;;;;;;5074626;28;20417;-77
2023/01/13 01:26:25;;;;;;;13.52;7.00;;;;;;;;;;5073695;28;20040;-77
2023/01/13 01:28:52;;;;;;;7.43;3.05;;;;;;;;;;5068365;28;20032;-77
2023/01/13 01:31:22;;;;;;;11.30;6.22;;;;;;;;;;5064693;28;20584;-77
2023/01/13 01:33:48;;;;;;;9.05;4.25;;;;;;;;;;5071217;28;20681;-77
2023/01/13 01:36:15;;;;;;;9.55;3.38;;;;;;;;;;5053814;28;20106;-77
2023/01/13 01:38:41;;;;;;;6.65;2.40;;;;;;;;;;5070707;28;20029;-77
2023/01/13 01:41:09;;;;;;;9.02;3.28;;;;;;;;;;5078562;28;20124;-77
2023/01/13 01:44:01;;;;;;;12.70;4.90;;;;;;;;;;5074783;28;20029;-77
2023/01/13 01:46:32;;;;;;;11.23;4.57;;;;;;;;;;5057671;28;20031;-77
2023/01/13 01:49:00;;;;;;;10.73;4.68;;;;;;;;;;5064133;28;20035;-77
2023/01/13 01:51:27;;;;;;;9.13;4.28;;;;;;;;;;5077656;28;20049;-77
2023/01/13 01:53:55;;;;;;;9.40;3.63;;;;;;;;;;5077648;28;20352;-77
2023/01/13 01:56:21;;;;;;;8.20;3.53;;;;;;;;;;5069724;28;20089;-77
2023/01/13 01:58:49;;;;;;;9.32;3.17;;;;;;;;;;5077187;28;20039;-77
2023/01/13 02:01:16;;;;;;;9.75;4.20;;;;;;;;;;5077320;28;20031;-77
2023/01/13 02:03:43;;;;;;;11.68;4.18;;;;;;;;;;5075843;28;20455;-77
2023/01/13 02:06:09;;;;;;;10.40;5.00;;;;;;;;;;5072592;28;20028;-77
2023/01/13 02:08:37;;;;;;;8.32;4.00;;;;;;;;;;5076739;28;20036;-77
2023/01/13 02:11:03;;;;;;;9.68;3.80;;;;;;;;;;5077246;28;20029;-77
2023/01/13 02:13:29;;;;;;;7.63;3.72;;;;;;;;;;5077586;28;20702;-78
2023/01/13 02:16:01;;;;;;;12.02;3.83;;;;;;;;;;5078080;28;20028;-77
2023/01/13 02:18:34;;;;;;;7.28;4.05;;;;;;;;;;5078337;28;20041;-77
2023/01/13 02:21:09;;;;;;;9.93;5.05;;;;;;;;;;5070178;28;20396;-77
2023/01/13 02:26:52;;;;;;;14.23;6.18;;;;;;;;;;5068544;28;20040;-77
2023/01/13 02:32:32;;;;;;;10.93;3.95;;;;;;;;;;5071053;28;20399;-77
2023/01/13 02:35:06;;;;;;;7.38;3.38;;;;;;;;;;5074368;28;20056;-77
2023/01/13 02:37:34;;;;;;;9.02;4.22;;;;;;;;;;5062474;28;20033;-77
2023/01/13 02:40:17;;;;;;;17.40;8.68;;;;;;;;;;5061753;28;20028;-77
2023/01/13 02:45:41;;;;;;;13.90;5.75;;;;;;;;;;5065082;28;20120;-77
2023/01/13 02:48:08;;;;;;;11.25;5.80;;;;;;;;;;5077515;28;20131;-77
2023/01/13 02:50:43;;;;;;;12.13;5.60;;;;;;;;;;5075350;28;20092;-77
2023/01/13 02:53:19;;;;;;;9.60;4.70;;;;;;;;;;5076917;28;20055;-77
2023/01/13 02:55:46;;;;;;;8.35;4.20;;;;;;;;;;5080985;28;20086;-77
2023/01/13 02:58:15;;;;;;;10.00;4.55;;;;;;;;;;5079510;28;20048;-77
2023/01/13 03:00:41;;;;;;;12.50;6.25;;;;;;;;;;5077047;28;20524;-77
2023/01/13 03:03:07;;;;;;;11.60;4.97;;;;;;;;;;5079450;28;20066;-77
2023/01/13 03:05:33;;;;;;;12.15;6.65;;;;;;;;;;5079978;28;20052;-77
2023/01/13 03:08:02;;;;;;;12.48;5.65;;;;;;;;;;5079147;28;20047;-77
2023/01/13 03:10:43;;;;;;;11.50;4.93;;;;;;;;;;5077258;28;20436;-77
2023/01/13 03:13:21;;;;;;;11.60;5.55;;;;;;;;;;5069612;28;20040;-77
2023/01/13 03:15:53;;;;;;;8.18;3.28;;;;;;;;;;5076193;28;20032;-77
2023/01/13 03:18:28;;;;;;;7.15;3.38;;;;;;;;;;5076260;28;20036;-77
2023/01/13 03:21:03;;;;;;;21.98;9.95;;;;;;;;;;5076499;28;20128;-77
2023/01/13 03:23:34;;;;;;;22.98;9.88;;;;;;;;;;5076081;28;20112;-77
2023/01/13 03:26:14;;;;;;;15.73;7.47;;;;;;;;;;5076046;28;20023;-78
2023/01/13 03:28:51;;;;;;;11.95;5.18;;;;;;;;;;5076034;28;20439;-77
2023/01/13 03:31:21;;;;;;;11.25;5.60;;;;;;;;;;5068900;28;20045;-77
2023/01/13 03:33:50;;;;;;;13.00;5.70;;;;;;;;;;5075724;28;20090;-77
2023/01/13 03:36:19;;;;;;;9.60;4.03;;;;;;;;;;5062647;28;20096;-77
2023/01/13 03:38:48;;;;;;;8.05;3.60;;;;;;;;;;5056939;28;20024;-77
2023/01/13 03:41:21;;;;;;;17.42;8.25;;;;;;;;;;5075083;28;20471;-77
2023/01/13 03:46:38;;;;;;;25.17;10.45;;;;;;;;;;5056426;28;19920;-77
2023/01/13 03:49:06;;;;;;;21.80;11.02;;;;;;;;;;5075408;28;20060;-77
2023/01/13 03:51:34;;;;;;;21.58;10.48;;;;;;;;;;5075776;28;20064;-77
2023/01/13 03:54:03;;;;;;;33.75;13.60;;;;;;;;;;5074405;28;20027;-77
2023/01/13 03:56:33;;;;;;;26.27;9.82;;;;;;;;;;5073195;28;20078;-77
2023/01/13 03:59:01;;;;;;;13.02;6.18;;;;;;;;;;5072158;28;20460;-77
2023/01/13 04:01:41;;;;;;;13.00;7.30;;;;;;;;;;5073834;28;20100;-77
2023/01/13 04:04:16;;;;;;;13.18;5.28;;;;;;;;;;5063687;28;20734;-77
2023/01/13 04:06:49;;;;;;;11.13;4.57;;;;;;;;;;5069958;28;20061;-77
2023/01/13 04:09:23;;;;;;;27.98;11.20;;;;;;;;;;5063357;28;20029;-77
2023/01/13 04:11:52;;;;;;;16.95;5.35;;;;;;;;;;5065082;28;20516;-77
2023/01/13 04:14:19;;;;;;;9.73;4.10;;;;;;;;;;5073396;28;20461;-77
2023/01/13 04:16:46;;;;;;;14.82;6.30;;;;;;;;;;5070135;28;20366;-77
2023/01/13 04:19:12;;;;;;;13.10;5.53;;;;;;;;;;5066395;28;20064;-77
2023/01/13 04:21:38;;;;;;;16.70;10.32;;;;;;;;;;5075433;28;20078;-77
2023/01/13 04:24:04;;;;;;;37.72;16.23;;;;;;;;;;5073922;28;20426;-77
2023/01/13 04:26:30;;;;;;;35.75;16.25;;;;;;;;;;5070592;28;20102;-77
2023/01/13 04:28:56;;;;;;;29.58;16.15;;;;;;;;;;5070972;28;20452;-77
2023/01/13 04:31:23;;;;;;;23.38;12.55;;;;;;;;;;5074198;28;20718;-78
2023/01/13 04:33:49;;;;;;;15.93;8.32;;;;;;;;;;5073823;28;20034;-77
2023/01/13 04:36:14;;;;;;;10.13;4.68;;;;;;;;;;5072468;28;20053;-78
2023/01/13 04:38:40;;;;;;;11.95;5.30;;;;;;;;;;5073608;28;20036;-77
2023/01/13 04:41:06;;;;;;;8.35;3.80;;;;;;;;;;5074195;28;20056;-78
2023/01/13 04:43:32;;;;;;;10.80;4.57;;;;;;;;;;5073571;28;20037;-77
2023/01/13 04:45:58;;;;;;;11.50;5.60;;;;;;;;;;5074172;28;20372;-77
2023/01/13 04:48:24;;;;;;;8.00;3.85;;;;;;;;;;5073567;28;20032;-77
2023/01/13 04:50:50;;;;;;;8.90;4.93;;;;;;;;;;5074040;28;20028;-77
2023/01/13 04:53:16;;;;;;;2.85;1.58;;;;;;;;;;5069866;28;20036;-77
2023/01/13 04:55:43;;;;;;;6.55;2.72;;;;;;;;;;5074785;28;20025;-77
2023/01/13 04:58:09;;;;;;;5.03;0.90;;;;;;;;;;5073857;28;20073;-77
2023/01/13 05:00:36;;;;;;;2.97;0.93;;;;;;;;;;5074349;28;20397;-77
2023/01/13 05:03:02;;;;;;;6.18;2.58;;;;;;;;;;5070047;28;20078;-77
2023/01/13 05:05:29;;;;;;;9.10;4.43;;;;;;;;;;5074532;28;20104;-78
2023/01/13 05:07:55;;;;;;;4.45;1.20;;;;;;;;;;5064727;28;20427;-77
2023/01/13 05:10:21;;;;;;;6.60;2.13;;;;;;;;;;5056209;28;20474;-77
2023/01/13 05:18:18;;;;;;;5.32;2.00;;;;;;;;;;5077156;28;20047;-77
2023/01/13 05:20:44;;;;;;;7.40;2.33;;;;;;;;;;5079823;28;20402;-77
2023/01/13 05:25:55;;;;;;;7.03;3.20;;;;;;;;;;5078332;28;20035;-77
2023/01/13 05:28:21;;;;;;;6.47;3.17;;;;;;;;;;5055052;28;20055;-77
2023/01/13 05:30:48;;;;;;;5.40;1.73;;;;;;;;;;5077267;28;20033;-77
2023/01/13 05:33:15;;;;;;;18.52;5.40;;;;;;;;;;5067071;28;20086;-77
2023/01/13 05:35:42;;;;;;;2.95;0.98;;;;;;;;;;5066043;28;20056;-76
2023/01/13 05:38:08;;;;;;;8.65;3.45;;;;;;;;;;5075965;28;20035;-77
2023/01/13 05:43:26;;;;;;;2.55;0.50;;;;;;;;;;5079905;28;20036;-77
2023/01/13 05:46:02;;;;;;;5.20;0.88;;;;;;;;;;5078944;28;20063;-77
2023/01/13 05:48:32;;;;;;;10.15;2.53;;;;;;;;;;5078650;28;20081;-77
2023/01/13 05:50:58;;;;;;;9.90;4.80;;;;;;;;;;5077914;28;20509;-77
2023/01/13 05:53:25;;;;;;;8.57;4.57;;;;;;;;;;5078186;28;20025;-77
2023/01/13 05:55:51;;;;;;;13.82;5.55;;;;;;;;;;5078790;28;20036;-77
2023/01/13 05:58:18;;;;;;;11.00;4.78;;;;;;;;;;5075830;28;20025;-77
2023/01/13 06:00:45;;;;;;;3.50;0.80;;;;;;;;;;5077092;28;20039;-77
2023/01/13 06:03:11;;;;;;;2.47;0.40;;;;;;;;;;5080476;28;20056;-77
2023/01/13 06:05:37;;;;;;;3.08;0.30;;;;;;;;;;5079052;28;20036;-77
2023/01/13 06:08:04;;;;;;;2.33;0.40;;;;;;;;;;5077896;28;20031;-78
2023/01/13 06:10:30;;;;;;;4.35;0.40;;;;;;;;;;5077559;28;20032;-77
2023/01/13 06:12:56;;;;;;;3.53;0.50;;;;;;;;;;5073176;28;20097;-77
2023/01/13 06:15:22;;;;;;;1.25;0.30;;;;;;;;;;5077554;28;20483;-78
2023/01/13 06:17:49;;;;;;;2.95;0.40;;;;;;;;;;5074661;28;20025;-77
2023/01/13 06:20:15;;;;;;;1.48;0.30;;;;;;;;;;5075823;28;20032;-77
2023/01/13 06:22:42;;;;;;;4.03;0.47;;;;;;;;;;5076834;28;20080;-78
2023/01/13 06:25:19;;;;;;;1.25;0.30;;;;;;;;;;5082732;28;20039;-77
2023/01/13 06:27:45;;;;;;;1.13;0.20;;;;;;;;;;5071476;28;20513;-76
2023/01/13 06:30:11;;;;;;;9.05;3.17;;;;;;;;;;5066618;28;20036;-80
2023/01/13 06:32:40;;;;;;;3.70;0.57;;;;;;;;;;5062494;28;20071;-80
2023/01/13 06:35:08;;;;;;;2.90;0.30;;;;;;;;;;5067987;28;20028;-80
2023/01/13 06:37:35;;;;;;;6.68;2.53;;;;;;;;;;5070179;28;20071;-80
2023/01/13 06:40:02;;;;;;;2.40;0.80;;;;;;;;;;5069638;28;20029;-80
2023/01/13 06:45:14;;;;;;;2.25;0.55;;;;;;;;;;5062850;28;20043;-80
2023/01/13 06:47:40;;;;;;;2.67;0.73;;;;;;;;;;5071960;28;20036;-80
2023/01/13 06:50:06;;;;;;;2.30;0.43;;;;;;;;;;5052648;28;20558;-80
2023/01/13 06:52:32;;;;;;;2.28;0.70;;;;;;;;;;5077146;28;20032;-80
2023/01/13 06:54:58;;;;;;;2.97;0.30;;;;;;;;;;5072239;28;20037;-80
2023/01/13 06:57:25;;;;;;;5.30;1.60;;;;;;;;;;5065238;28;20040;-80
2023/01/13 06:59:51;;;;;;;11.38;5.88;;;;;;;;;;5070271;28;20024;-80
2023/01/13 07:02:17;;;;;;;14.05;7.85;;;;;;;;;;5070080;28;20471;-80
2023/01/13 07:04:45;;;;;;;12.60;6.47;;;;;;;;;;5064902;28;20028;-80
2023/01/13 07:07:13;;;;;;;10.82;3.40;;;;;;;;;;5061803;28;20074;-80
2023/01/13 07:09:39;;;;;;;7.00;2.33;;;;;;;;;;5070258;28;20433;-80
2023/01/13 07:12:05;;;;;;;7.85;1.50;;;;;;;;;;5062196;28;20029;-80
2023/01/13 07:17:23;;;;;;;8.10;2.25;;;;;;;;;;5079479;28;20054;-80
2023/01/13 07:19:50;;;;;;;7.57;2.05;;;;;;;;;;5081040;28;20025;-80
2023/01/13 07:22:16;;;;;;;10.95;4.20;;;;;;;;;;5066931;28;20041;-80
2023/01/13 07:24:42;;;;;;;7.25;2.13;;;;;;;;;;5049247;28;20116;-80
2023/01/13 07:27:08;;;;;;;4.82;1.25;;;;;;;;;;5069728;28;20036;-79
2023/01/13 07:29:34;;;;;;;6.75;2.17;;;;;;;;;;5074015;28;20105;-79
2023/01/13 07:32:00;;;;;;;20.42;8.80;;;;;;;;;;5072607;28;20140;-80
2023/01/13 07:34:26;;;;;;;6.60;2.65;;;;;;;;;;5068807;28;20032;-80
2023/01/13 07:36:52;;;;;;;6.80;1.98;;;;;;;;;;5067633;28;20060;-79
2023/01/13 07:39:18;;;;;;;4.97;1.42;;;;;;;;;;5069460;28;20085;-79
2023/01/13 07:44:28;;;;;;;14.25;3.80;;;;;;;;;;5070600;28;20726;-80
2023/01/13 07:46:54;;;;;;;5.18;1.70;;;;;;;;;;5069620;28;20487;-80
2023/01/13 07:49:20;;;;;;;5.13;1.00;;;;;;;;;;5069245;28;20111;-80
2023/01/13 07:51:46;;;;;;;6.35;1.77;;;;;;;;;;5064608;28;20031;-80
2023/01/13 07:54:12;;;;;;;12.68;3.72;;;;;;;;;;5066062;28;20459;-80
2023/01/13 07:56:38;;;;;;;5.55;1.25;;;;;;;;;;5069805;28;20032;-80
2023/01/13 07:59:04;;;;;;;5.55;1.25;;;;;;;;;;5069546;28;21404;-80
2023/01/13 08:01:30;;;;;;;20.42;10.00;;;;;;;;;;5065198;28;20035;-80
2023/01/13 08:03:57;;;;;;;12.52;6.25;;;;;;;;;;5069200;28;20490;-80
2023/01/13 08:06:24;;;;;;;8.95;2.60;;;;;;;;;;5066732;28;20032;-80
2023/01/13 08:08:50;;;;;;;10.23;3.22;;;;;;;;;;5062528;28;20425;-80
2023/01/13 08:11:17;;;;;;;13.32;3.53;;;;;;;;;;5068934;28;20040;-79
2023/01/13 08:13:43;;;;;;;18.02;5.65;;;;;;;;;;5066775;28;20028;-80
2023/01/13 08:16:11;;;;;;;14.45;6.35;;;;;;;;;;5059642;28;20036;-80
2023/01/13 08:18:37;;;;;;;13.30;7.38;;;;;;;;;;5066375;28;20400;-80
2023/01/13 08:21:10;;;;;;;27.02;8.90;;;;;;;;;;5072776;28;20086;-79
2023/01/13 08:23:36;;;;;;;15.75;7.00;;;;;;;;;;5069933;28;22009;-80
2023/01/13 08:26:05;;;;;;;11.45;5.38;;;;;;;;;;5064713;28;20021;-80
2023/01/13 08:28:31;;;;;;;13.82;5.60;;;;;;;;;;5068047;28;20033;-80
2023/01/13 08:31:01;;;;;;;13.50;6.93;;;;;;;;;;5068674;28;20032;-80
2023/01/13 08:33:27;;;;;;;8.60;2.63;;;;;;;;;;5067077;28;20041;-80
2023/01/13 08:35:53;;;;;;;7.35;1.98;;;;;;;;;;5071382;28;20131;-80
2023/01/13 08:38:19;;;;;;;3.85;1.00;;;;;;;;;;5065706;28;20044;-80
2023/01/13 08:40:46;;;;;;;6.60;1.83;;;;;;;;;;5062397;28;20089;-80
2023/01/13 08:43:11;;;;;;;6.90;2.92;;;;;;;;;;5063912;28;20035;-80
2023/01/13 08:45:37;;;;;;;12.80;5.13;;;;;;;;;;5068588;28;20029;-79
2023/01/13 08:48:04;;;;;;;11.68;5.63;;;;;;;;;;5075123;28;20032;-79
2023/01/13 08:50:30;;;;;;;12.10;5.25;;;;;;;;;;5068902;28;20475;-80
2023/01/13 08:52:56;;;;;;;6.72;2.78;;;;;;;;;;5058514;28;20094;-80
2023/01/13 08:55:22;;;;;;;7.95;2.35;;;;;;;;;;5068734;28;20041;-80
2023/01/13 08:57:48;;;;;;;7.22;2.67;;;;;;;;;;5066609;28;20115;-80
2023/01/13 09:00:15;;;;;;;13.65;4.55;;;;;;;;;;5065631;28;20075;-80
2023/01/13 09:02:41;;;;;;;13.88;5.47;;;;;;;;;;5059016;28;20123;-80
2023/01/13 09:05:08;;;;;;;14.02;5.60;;;;;;;;;;5071067;28;20035;-80
2023/01/13 09:07:35;;;;;;;10.93;5.00;;;;;;;;;;5068369;28;20044;-80
2023/01/13 09:10:02;;;;;;;13.27;5.10;;;;;;;;;;5068497;28;20029;-80
2023/01/13 09:15:12;;;;;;;16.60;7.05;;;;;;;;;;5068835;28;20113;-80
2023/01/13 09:17:38;;;;;;;14.15;5.32;;;;;;;;;;5069086;28;20032;-80
2023/01/13 09:20:05;;;;;;;11.73;4.32;;;;;;;;;;5067805;28;20620;-80
2023/01/13 09:22:34;;;;;;;10.93;4.22;;;;;;;;;;5072320;28;20617;-80
2023/01/13 09:25:00;;;;;;;6.18;1.58;;;;;;;;;;5079390;28;20067;-80
2023/01/13 09:27:26;;;;;;;3.50;1.40;;;;;;;;;;5064939;28;20819;-80
2023/01/13 09:29:52;;;;;;;15.68;5.35;;;;;;;;;;5062982;28;20040;-80
2023/01/13 09:32:18;;;;;;;16.08;5.53;;;;;;;;;;5060936;28;20033;-80
2023/01/13 09:34:59;;;;;;;18.27;6.78;;;;;;;;;;5067064;28;20036;-80
2023/01/13 09:37:26;;;;;;;22.00;7.22;;;;;;;;;;5062756;28;20086;-80
2023/01/13 09:39:52;;;;;;;16.77;8.70;;;;;;;;;;5063068;28;20033;-80
2023/01/13 09:45:11;;;;;;;61.85;33.17;;;;;;;;;;5066203;28;20035;-80
2023/01/13 09:47:45;;;;;;;37.63;18.13;;;;;;;;;;5073445;28;20433;-80
2023/01/13 09:50:13;;;;;;;18.13;8.45;;;;;;;;;;5073512;28;20055;-80
2023/01/13 09:52:41;;;;;;;14.63;6.15;;;;;;;;;;5064864;28;20040;-80
2023/01/13 09:55:14;;;;;;;12.85;5.28;;;;;;;;;;5066833;28;20041;-79
2023/01/13 09:57:40;;;;;;;11.32;4.57;;;;;;;;;;5068185;28;20036;-80
2023/01/13 10:00:20;;;;;;;14.85;6.75;;;;;;;;;;5068463;28;20036;-80
2023/01/13 10:02:46;;;;;;;6.07;1.45;;;;;;;;;;5060719;28;20037;-79
2023/01/13 10:05:34;;;;;;;6.30;1.98;;;;;;;;;;5071350;28;20036;-80
2023/01/13 10:08:06;;;;;;;6.82;1.73;;;;;;;;;;5066409;28;20047;-80
2023/01/13 10:10:35;;;;;;;8.68;3.80;;;;;;;;;;5070331;28;20605;-80
2023/01/13 10:13:14;;;;;;;11.38;4.25;;;;;;;;;;5070367;28;20037;-80
2023/01/13 10:15:45;;;;;;;12.43;3.65;;;;;;;;;;5067460;28;20680;-80
2023/01/13 10:18:21;;;;;;;8.77;3.30;;;;;;;;;;5066776;28;20032;-80
2023/01/13 10:21:03;;;;;;;14.75;6.20;;;;;;;;;;5071668;28;20119;-80
2023/01/13 10:23:47;;;;;;;13.80;5.85;;;;;;;;;;5072116;28;20032;-79
2023/01/13 10:26:33;;;;;;;10.60;4.95;;;;;;;;;;5068005;28;20930;-80
2023/01/13 10:28:59;;;;;;;9.48;3.60;;;;;;;;;;5071117;28;20103;-80
2023/01/13 10:31:25;;;;;;;11.48;4.10;;;;;;;;;;5076685;28;20047;-80
2023/01/13 10:33:59;;;;;;;11.60;4.80;;;;;;;;;;5069711;28;20066;-80
2023/01/13 10:36:25;;;;;;;11.15;4.80;;;;;;;;;;5068323;28;20063;-79
2023/01/13 10:38:51;;;;;;;10.40;4.00;;;;;;;;;;5068473;28;20028;-79
2023/01/13 10:41:24;;;;;;;8.77;5.13;;;;;;;;;;5068068;28;20395;-80
2023/01/13 10:43:50;;;;;;;8.77;4.20;;;;;;;;;;5068417;28;20100;-79
2023/01/13 10:46:17;;;;;;;9.40;4.18;;;;;;;;;;5070048;28;20127;-79
2023/01/13 10:48:46;;;;;;;20.17;10.25;;;;;;;;;;5066320;28;20108;-80
2023/01/13 10:51:23;;;;;;;14.07;6.95;;;;;;;;;;5062178;28;20125;-80
2023/01/13 10:53:49;;;;;;;10.23;4.40;;;;;;;;;;5068389;28;20057;-80
2023/01/13 10:56:19;;;;;;;7.85;3.88;;;;;;;;;;5070198;28;20067;-80
2023/01/13 10:58:45;;;;;;;12.70;4.65;;;;;;;;;;5076667;28;20638;-79
2023/01/13 11:01:24;;;;;;;9.32;5.20;;;;;;;;;;5071097;28;20846;-80
2023/01/13 11:03:50;;;;;;;10.45;5.13;;;;;;;;;;5072752;28;20356;-80
2023/01/13 11:06:27;;;;;;;9.80;4.47;;;;;;;;;;5071005;28;20112;-80
2023/01/13 11:08:56;;;;;;;13.10;4.78;;;;;;;;;;5063414;28;20034;-79
2023/01/13 11:11:26;;;;;;;7.03;3.95;;;;;;;;;;5070780;28;20046;-80
2023/01/13 11:14:39;;;;;;;7.90;3.10;;;;;;;;;;5070801;28;20028;-80
2023/01/13 11:16:40;;;;;;;10.13;3.63;;;;;;;;;;5054647;28;20048;-80
2023/01/13 11:19:11;;;;;;;14.35;5.15;;;;;;;;;;5059921;28;20613;-79
2023/01/13 11:21:37;;;;;;;12.57;4.93;;;;;;;;;;5057305;28;20029;-80
2023/01/13 11:24:11;;;;;;;17.55;8.93;;;;;;;;;;5067193;28;20021;-80
2023/01/13 11:26:44;;;;;;;10.80;5.68;;;;;;;;;;5069041;28;20039;-80
2023/01/13 11:29:13;;;;;;;12.20;5.75;;;;;;;;;;5069993;28;20029;-80
2023/01/13 11:31:43;;;;;;;7.22;2.88;;;;;;;;;;5066054;28;20051;-80
2023/01/13 11:34:32;;;;;;;6.80;3.25;;;;;;;;;;5077470;28;20043;-80
2023/01/13 11:37:00;;;;;;;6.75;3.42;;;;;;;;;;5014936;28;20065;-79
2023/01/13 11:39:29;;;;;;;3.65;1.00;;;;;;;;;;5022817;28;20030;-80
2023/01/13 11:42:41;;;;;;;7.13;2.60;;;;;;;;;;5031209;28;20038;-79
2023/01/13 11:44:45;;;;;;;6.72;2.95;;;;;;;;;;5029021;28;20033;-80
2023/01/13 11:47:12;;;;;;;10.88;4.57;;;;;;;;;;5030122;28;20396;-80
2023/01/13 11:49:38;;;;;;;5.80;2.33;;;;;;;;;;5034629;28;20087;-79
2023/01/13 11:52:21;;;;;;;6.35;2.28;;;;;;;;;;5025836;28;20117;-80
2023/01/13 11:54:47;;;;;;;;;;;;;;;;;;5028624;28;20033;-80
2023/01/13 11:57:23;;;;;;;9.85;2.70;;;;;;;;;;5021004;28;19923;-80
2023/01/13 11:59:49;;;;;;;13.55;6.25;;;;;;;;;;5025871;28;20138;-80
2023/01/13 12:02:15;;;;;;;8.05;3.25;;;;;;;;;;5029025;28;20806;-80
2023/01/13 12:04:54;;;;;;;6.63;2.28;;;;;;;;;;5034964;28;20030;-80
2023/01/13 12:07:30;;;;;;;5.95;2.22;;;;;;;;;;5030678;28;20555;-80
2023/01/13 12:10:02;;;;;;;7.22;2.05;;;;;;;;;;5025302;28;20105;-80
2023/01/13 12:12:49;;;;;;;5.47;1.95;;;;;;;;;;5028693;28;20041;-80
2023/01/13 12:15:15;;;;;;;6.53;2.70;;;;;;;;;;4997323;28;20051;-80
2023/01/13 12:17:41;;;;;;;14.65;5.72;;;;;;;;;;5031979;28;20120;-80
2023/01/13 12:20:17;;;;;;;13.98;4.47;;;;;;;;;;5037338;28;20388;-80
2023/01/13 12:22:45;;;;;;;7.13;3.08;;;;;;;;;;5021295;28;20646;-80
2023/01/13 12:25:20;;;;;;;9.32;3.42;;;;;;;;;;5028915;28;20068;-80
2023/01/13 12:27:49;;;;;;;7.68;3.30;;;;;;;;;;5028072;28;20429;-80
2023/01/13 12:30:35;;;;;;;8.18;3.20;;;;;;;;;;5031546;28;20416;-80
2023/01/13 12:33:08;;;;;;;6.85;1.88;;;;;;;;;;5030170;28;20037;-80
2023/01/13 12:35:45;;;;;;;5.65;1.80;;;;;;;;;;5038261;28;20127;-79
2023/01/13 12:38:16;;;;;;;2.60;1.08;;;;;;;;;;5068488;28;20051;-80
2023/01/13 12:41:01;;;;;;;2.53;0.68;;;;;;;;;;5070756;28;20027;-80
2023/01/13 12:46:18;;;;;;;5.05;1.83;;;;;;;;;;5070748;28;20544;-80
2023/01/13 12:48:45;;;;;;;3.60;1.42;;;;;;;;;;5071817;28;20395;-80
2023/01/13 12:51:22;;;;;;;2.90;1.08;;;;;;;;;;5066056;28;20039;-79
2023/01/13 12:53:48;;;;;;;3.90;1.13;;;;;;;;;;5067371;28;20036;-80
2023/01/13 12:56:22;;;;;;;2.53;0.82;;;;;;;;;;5067754;28;20039;-79
2023/01/13 12:58:48;;;;;;;3.15;1.20;;;;;;;;;;5050944;28;20124;-80
2023/01/13 13:01:14;;;;;;;6.57;1.92;;;;;;;;;;5062911;28;20830;-80
2023/01/13 13:03:41;;;;;;;4.97;1.38;;;;;;;;;;5060582;28;20037;-80
2023/01/13 13:06:07;;;;;;;2.63;0.63;;;;;;;;;;5059325;28;20096;-79
2023/01/13 13:08:42;;;;;;;3.85;0.70;;;;;;;;;;5064166;28;20758;-79
2023/01/13 13:13:16;;;;;;;4.22;0.73;;;;;;;;;;5066467;28;20135;-79
2023/01/13 13:14:04;;;;;;;9.15;2.20;;;;;;;;;;5066893;28;20040;-80
2023/01/13 13:16:30;;;;;;;5.85;2.00;;;;;;;;;;5067357;28;20032;-80
2023/01/13 13:19:15;;;;;;;6.57;2.00;;;;;;;;;;5072753;28;20083;-79
2023/01/13 13:21:59;;;;;;;7.15;1.88;;;;;;;;;;5065702;28;20086;-80
2023/01/13 13:24:26;;;;;;;7.65;2.25;;;;;;;;;;5067561;28;20040;-79
2023/01/13 13:26:52;;;;;;;4.63;1.60;;;;;;;;;;5062706;28;20081;-80
2023/01/13 13:29:27;;;;;;;4.57;1.63;;;;;;;;;;5061078;28;20040;-80
2023/01/13 13:31:59;;;;;;;5.80;1.52;;;;;;;;;;5067428;28;20060;-80
2023/01/13 13:34:32;;;;;;;5.00;1.80;;;;;;;;;;5063665;28;20046;-80
2023/01/13 13:37:04;;;;;;;4.93;1.70;;;;;;;;;;5070893;28;20415;-79
2023/01/13 13:47:59;;;;;;;9.88;3.05;;;;;;;;;;5064689;28;20061;-80
2023/01/13 13:50:25;;;;;;;7.90;3.28;;;;;;;;;;5068106;28;20036;-79
2023/01/13 13:53:04;;;;;;;10.10;3.60;;;;;;;;;;5073904;28;20094;-80
2023/01/13 13:55:30;;;;;;;8.40;3.28;;;;;;;;;;5074474;28;20071;-80
2023/01/13 13:57:56;;;;;;;11.60;2.90;;;;;;;;;;5072438;28;20078;-80
2023/01/13 14:00:22;;;;;;;9.07;3.72;;;;;;;;;;5067523;28;20032;-80
2023/01/13 14:02:51;;;;;;;13.95;8.40;;;;;;;;;;5075938;28;20024;-80
2023/01/13 14:05:37;;;;;;;10.82;4.90;;;;;;;;;;5066185;28;20032;-80
2023/01/13 14:08:10;;;;;;;9.30;3.65;;;;;;;;;;5065563;28;20056;-80
2023/01/13 14:10:38;;;;;;;10.05;3.78;;;;;;;;;;5070950;28;20107;-80
2023/01/13 14:13:24;;;;;;;12.10;3.00;;;;;;;;;;5070775;28;20036;-80
2023/01/13 14:15:57;;;;;;;14.20;4.50;;;;;;;;;;5072283;28;20036;-80
2023/01/13 14:18:24;;;;;;;10.88;4.05;;;;;;;;;;5074010;28;20051;-79
2023/01/13 14:20:53;;;;;;;7.30;3.00;;;;;;;;;;5077233;28;20155;-80
2023/01/13 14:23:25;;;;;;;7.65;2.97;;;;;;;;;;5071503;28;20057;-79
2023/01/13 14:25:51;;;;;;;10.30;3.42;;;;;;;;;;5072213;28;20039;-79
2023/01/13 14:28:24;;;;;;;16.73;9.30;;;;;;;;;;5073155;28;20830;-79
2023/01/13 14:30:50;;;;;;;19.23;7.18;;;;;;;;;;5075152;28;20032;-80
2023/01/13 14:33:18;;;;;;;12.57;5.97;;;;;;;;;;5071008;28;20047;-80
2023/01/13 14:36:03;;;;;;;14.95;5.60;;;;;;;;;;5064177;28;20044;-80
2023/01/13 14:38:29;;;;;;;13.13;5.70;;;;;;;;;;5066455;28;20039;-80
2023/01/13 14:40:55;;;;;;;11.23;4.80;;;;;;;;;;5071503;28;20028;-80
2023/01/13 14:43:22;;;;;;;12.07;5.22;;;;;;;;;;5069238;28;20052;-80
2023/01/13 14:45:54;;;;;;;15.70;7.65;;;;;;;;;;5066735;28;20073;-80
2023/01/13 14:48:21;;;;;;;17.75;8.35;;;;;;;;;;5069715;28;20041;-79
2023/01/13 14:50:47;;;;;;;9.75;4.97;;;;;;;;;;5063628;28;20062;-79
2023/01/13 14:53:27;;;;;;;10.10;5.32;;;;;;;;;;5069931;28;20040;-79
2023/01/13 14:55:53;;;;;;;6.80;3.25;;;;;;;;;;5073357;28;20036;-80
2023/01/13 14:58:22;;;;;;;11.15;6.13;;;;;;;;;;5071764;28;20036;-80
2023/01/13 15:00:49;;;;;;;16.08;8.80;;;;;;;;;;5067243;28;20577;-79
2023/01/13 15:03:16;;;;;;;13.10;7.05;;;;;;;;;;5067820;28;20042;-80
2023/01/13 15:05:46;;;;;;;12.50;5.82;;;;;;;;;;5076184;28;20025;-80
2023/01/13 15:08:16;;;;;;;12.82;6.18;;;;;;;;;;5076151;28;20372;-80
2023/01/13 15:10:45;;;;;;;10.13;4.40;;;;;;;;;;5071469;28;20090;-79
2023/01/13 15:13:22;;;;;;;10.50;4.20;;;;;;;;;;5072880;28;20059;-80
2023/01/13 15:15:50;;;;;;;13.63;7.32;;;;;;;;;;5070736;28;20531;-79
2023/01/13 15:18:16;;;;;;;12.18;5.13;;;;;;;;;;5070131;28;20622;-80
2023/01/13 15:20:42;;;;;;;15.13;5.50;;;;;;;;;;5069619;28;20028;-79
2023/01/13 15:23:09;;;;;;;12.60;7.70;;;;;;;;;;5072232;28;20021;-79
2023/01/13 15:25:36;;;;;;;12.57;7.53;;;;;;;;;;5067531;28;20039;-80
2023/01/13 15:28:03;;;;;;;18.17;8.23;;;;;;;;;;5068325;28;20115;-80
2023/01/13 15:30:29;;;;;;;17.55;9.23;;;;;;;;;;5070857;28;20410;-80
2023/01/13 15:32:56;;;;;;;20.25;8.43;;;;;;;;;;5062994;28;20091;-80
2023/01/13 15:35:23;;;;;;;17.83;11.05;;;;;;;;;;5071134;28;20403;-80
2023/01/13 15:37:49;;;;;;;14.82;7.43;;;;;;;;;;5072447;28;20028;-80